sensor_id;sensor_type;location;lat;lon;timestamp;pressure;altitude;pressure_sealevel;temperature;humidity
51259;BME280;37327;54.254;18.504;2023-03-05T00:00:26;100283.31;;;-2.43;58.75
51259;BME280;37327;54.254;18.504;2023-03-05T00:03:46;100278.87;;;-2.43;58.91
51259;BME280;37327;54.254;18.504;2023-03-05T00:07:04;100281.60;;;-2.44;59.17
51259;BME280;37327;54.254;18.504;2023-03-05T00:10:27;100276.44;;;-2.46;59.24
51259;BME280;37327;54.254;18.504;2023-03-05T00:13:45;100275.70;;;-2.48;59.32
51259;BME280;37327;54.254;18.504;2023-03-05T00:17:02;100266.16;;;-2.50;59.41
51259;BME280;37327;54.254;18.504;2023-03-05T00:20:20;100258.36;;;-2.52;59.30
51259;BME280;37327;54.254;18.504;2023-03-05T00:23:37;100269.77;;;-2.51;59.49
51259;BME280;37327;54.254;18.504;2023-03-05T00:26:54;100254.75;;;-2.51;59.77
51259;BME280;37327;54.254;18.504;2023-03-05T00:30:13;100267.97;;;-2.51;59.85
51259;BME280;37327;54.254;18.504;2023-03-05T00:33:30;100254.01;;;-2.53;59.89
51259;BME280;37327;54.254;18.504;2023-03-05T00:36:50;100260.04;;;-2.51;59.94
51259;BME280;37327;54.254;18.504;2023-03-05T00:40:08;100250.43;;;-2.52;59.77
51259;BME280;37327;54.254;18.504;2023-03-05T00:43:25;100254.65;;;-2.49;59.75
51259;BME280;37327;54.254;18.504;2023-03-05T00:46:42;100252.20;;;-2.52;59.98
51259;BME280;37327;54.254;18.504;2023-03-05T00:50:01;100250.54;;;-2.53;60.24
51259;BME280;37327;54.254;18.504;2023-03-05T00:53:19;100257.49;;;-2.52;60.53
51259;BME280;37327;54.254;18.504;2023-03-05T00:56:36;100249.65;;;-2.54;60.92
51259;BME280;37327;54.254;18.504;2023-03-05T00:59:54;100244.38;;;-2.54;61.09
51259;BME280;37327;54.254;18.504;2023-03-05T01:03:11;100243.54;;;-2.54;61.41
51259;BME280;37327;54.254;18.504;2023-03-05T01:06:30;100248.73;;;-2.53;61.81
51259;BME280;37327;54.254;18.504;2023-03-05T01:09:47;100242.28;;;-2.49;62.15
51259;BME280;37327;54.254;18.504;2023-03-05T01:13:04;100240.17;;;-2.44;62.34
51259;BME280;37327;54.254;18.504;2023-03-05T01:16:22;100230.23;;;-2.40;62.85
51259;BME280;37327;54.254;18.504;2023-03-05T01:19:40;100227.27;;;-2.35;63.13
51259;BME280;37327;54.254;18.504;2023-03-05T01:22:57;100215.62;;;-2.33;63.56
51259;BME280;37327;54.254;18.504;2023-03-05T01:26:17;100209.50;;;-2.33;63.88
51259;BME280;37327;54.254;18.504;2023-03-05T01:29:35;100209.70;;;-2.36;64.26
51259;BME280;37327;54.254;18.504;2023-03-05T01:32:54;100198.39;;;-2.39;64.76
51259;BME280;37327;54.254;18.504;2023-03-05T01:36:14;100187.30;;;-2.44;65.34
51259;BME280;37327;54.254;18.504;2023-03-05T01:39:32;100190.14;;;-2.47;66.19
51259;BME280;37327;54.254;18.504;2023-03-05T01:43:05;100181.57;;;-2.50;67.18
51259;BME280;37327;54.254;18.504;2023-03-05T01:46:28;100171.13;;;-2.52;68.09
51259;BME280;37327;54.254;18.504;2023-03-05T01:49:46;100172.90;;;-2.52;68.64
51259;BME280;37327;54.254;18.504;2023-03-05T01:53:05;100168.48;;;-2.52;69.21
51259;BME280;37327;54.254;18.504;2023-03-05T01:56:24;100169.43;;;-2.53;70.03
51259;BME280;37327;54.254;18.504;2023-03-05T01:59:45;100159.91;;;-2.55;70.74
51259;BME280;37327;54.254;18.504;2023-03-05T02:03:06;100155.47;;;-2.55;71.18
51259;BME280;37327;54.254;18.504;2023-03-05T02:06:25;100155.56;;;-2.56;71.73
51259;BME280;37327;54.254;18.504;2023-03-05T02:09:43;100156.41;;;-2.56;72.13
51259;BME280;37327;54.254;18.504;2023-03-05T02:13:05;100155.67;;;-2.58;72.45
51259;BME280;37327;54.254;18.504;2023-03-05T02:16:23;100148.81;;;-2.61;73.01
51259;BME280;37327;54.254;18.504;2023-03-05T02:19:53;100151.55;;;-2.62;73.18
51259;BME280;37327;54.254;18.504;2023-03-05T02:23:12;100147.23;;;-2.63;73.27
51259;BME280;37327;54.254;18.504;2023-03-05T02:26:29;100142.88;;;-2.64;73.18
51259;BME280;37327;54.254;18.504;2023-03-05T02:29:46;100145.53;;;-2.64;73.10
51259;BME280;37327;54.254;18.504;2023-03-05T02:33:04;100135.79;;;-2.64;73.16
51259;BME280;37327;54.254;18.504;2023-03-05T02:36:22;100128.93;;;-2.66;73.24
51259;BME280;37327;54.254;18.504;2023-03-05T02:39:40;100128.84;;;-2.65;73.11
51259;BME280;37327;54.254;18.504;2023-03-05T02:42:57;100126.38;;;-2.68;73.19
51259;BME280;37327;54.254;18.504;2023-03-05T02:46:14;100121.96;;;-2.67;73.22
51259;BME280;37327;54.254;18.504;2023-03-05T02:49:32;100117.63;;;-2.68;73.16
51259;BME280;37327;54.254;18.504;2023-03-05T02:52:49;100115.21;;;-2.71;73.17
51259;BME280;37327;54.254;18.504;2023-03-05T02:56:06;100103.87;;;-2.73;73.10
51259;BME280;37327;54.254;18.504;2023-03-05T02:59:24;100097.84;;;-2.75;73.05
51259;BME280;37327;54.254;18.504;2023-03-05T03:02:41;100092.90;;;-2.80;73.21
51259;BME280;37327;54.254;18.504;2023-03-05T03:05:59;100096.70;;;-2.84;73.34
51259;BME280;37327;54.254;18.504;2023-03-05T03:09:16;100084.98;;;-2.93;73.45
51259;BME280;37327;54.254;18.504;2023-03-05T03:12:38;100079.27;;;-3.00;73.68
51259;BME280;37327;54.254;18.504;2023-03-05T03:16:05;100082.23;;;-3.04;73.96
51259;BME280;37327;54.254;18.504;2023-03-05T03:19:23;100077.38;;;-3.10;74.07
51259;BME280;37327;54.254;18.504;2023-03-05T03:22:40;100077.47;;;-3.12;74.14
51259;BME280;37327;54.254;18.504;2023-03-05T03:25:58;100078.31;;;-3.11;74.25
51259;BME280;37327;54.254;18.504;2023-03-05T03:29:16;100075.48;;;-3.08;74.32
51259;BME280;37327;54.254;18.504;2023-03-05T03:32:33;100065.52;;;-3.05;74.38
51259;BME280;37327;54.254;18.504;2023-03-05T03:35:50;100065.96;;;-2.98;74.47
51259;BME280;37327;54.254;18.504;2023-03-05T03:39:08;100060.24;;;-2.92;74.26
51259;BME280;37327;54.254;18.504;2023-03-05T03:42:26;100062.37;;;-2.84;74.31
51259;BME280;37327;54.254;18.504;2023-03-05T03:45:44;100083.29;;;-2.81;74.39
51259;BME280;37327;54.254;18.504;2023-03-05T03:49:02;100097.84;;;-2.75;74.37
51259;BME280;37327;54.254;18.504;2023-03-05T03:52:19;100095.94;;;-2.73;74.96
51259;BME280;37327;54.254;18.504;2023-03-05T03:55:40;100087.28;;;-2.75;77.56
51259;BME280;37327;54.254;18.504;2023-03-05T03:59:02;100074.59;;;-2.83;80.08
51259;BME280;37327;54.254;18.504;2023-03-05T04:02:20;100061.09;;;-2.91;81.01
51259;BME280;37327;54.254;18.504;2023-03-05T04:05:37;100059.70;;;-2.97;81.36
51259;BME280;37327;54.254;18.504;2023-03-05T04:08:54;100066.15;;;-3.01;81.55
51259;BME280;37327;54.254;18.504;2023-03-05T04:12:12;100047.16;;;-3.06;81.83
51259;BME280;37327;54.254;18.504;2023-03-05T04:15:33;100045.78;;;-3.12;81.98
51259;BME280;37327;54.254;18.504;2023-03-05T04:18:51;100028.56;;;-3.18;82.04
51259;BME280;37327;54.254;18.504;2023-03-05T04:22:13;100028.77;;;-3.21;82.32
51259;BME280;37327;54.254;18.504;2023-03-05T04:25:31;100024.65;;;-3.25;82.45
51259;BME280;37327;54.254;18.504;2023-03-05T04:28:48;100028.35;;;-3.27;82.56
51259;BME280;37327;54.254;18.504;2023-03-05T04:32:06;100028.67;;;-3.32;82.42
51259;BME280;37327;54.254;18.504;2023-03-05T04:35:24;100022.02;;;-3.38;82.54
51259;BME280;37327;54.254;18.504;2023-03-05T04:38:41;100031.09;;;-3.42;82.58
51259;BME280;37327;54.254;18.504;2023-03-05T04:41:58;100035.73;;;-3.45;82.69
51259;BME280;37327;54.254;18.504;2023-03-05T04:45:16;100042.91;;;-3.47;82.89
51259;BME280;37327;54.254;18.504;2023-03-05T04:48:33;100032.45;;;-3.49;82.98
51259;BME280;37327;54.254;18.504;2023-03-05T04:51:50;100030.65;;;-3.48;82.88
51259;BME280;37327;54.254;18.504;2023-03-05T04:55:09;100015.64;;;-3.48;82.91
51259;BME280;37327;54.254;18.504;2023-03-05T04:58:27;100019.77;;;-3.44;82.57
51259;BME280;37327;54.254;18.504;2023-03-05T05:01:44;100023.91;;;-3.40;82.33
51259;BME280;37327;54.254;18.504;2023-03-05T05:05:02;100022.11;;;-3.39;82.02
51259;BME280;37327;54.254;18.504;2023-03-05T05:08:20;100010.81;;;-3.41;81.91
51259;BME280;37327;54.254;18.504;2023-03-05T05:11:39;100011.23;;;-3.47;81.89
51259;BME280;37327;54.254;18.504;2023-03-05T05:14:59;100019.35;;;-3.50;81.87
51259;BME280;37327;54.254;18.504;2023-03-05T05:18:17;100013.33;;;-3.52;81.86
51259;BME280;37327;54.254;18.504;2023-03-05T05:21:34;100016.95;;;-3.53;81.89
51259;BME280;37327;54.254;18.504;2023-03-05T05:24:52;100010.80;;;-3.54;81.78
51259;BME280;37327;54.254;18.504;2023-03-05T05:28:10;100017.13;;;-3.57;81.63
51259;BME280;37327;54.254;18.504;2023-03-05T05:31:28;100011.84;;;-3.57;81.56
51259;BME280;37327;54.254;18.504;2023-03-05T05:34:45;100018.06;;;-3.58;81.44
51259;BME280;37327;54.254;18.504;2023-03-05T05:38:03;100010.15;;;-3.58;81.54
51259;BME280;37327;54.254;18.504;2023-03-05T05:41:20;100007.41;;;-3.56;81.44
51259;BME280;37327;54.254;18.504;2023-03-05T05:44:37;100006.38;;;-3.53;81.36
51259;BME280;37327;54.254;18.504;2023-03-05T05:47:55;100005.31;;;-3.51;81.25
51259;BME280;37327;54.254;18.504;2023-03-05T05:51:19;99997.91;;;-3.46;81.05
51259;BME280;37327;54.254;18.504;2023-03-05T05:54:43;100005.21;;;-3.37;80.85
51259;BME280;37327;54.254;18.504;2023-03-05T05:58:00;99998.34;;;-3.26;80.54
51259;BME280;37327;54.254;18.504;2023-03-05T06:01:24;100005.73;;;-3.19;80.14
51259;BME280;37327;54.254;18.504;2023-03-05T06:04:43;99999.82;;;-3.09;80.10
51259;BME280;37327;54.254;18.504;2023-03-05T06:08:00;99998.95;;;-2.97;80.28
51259;BME280;37327;54.254;18.504;2023-03-05T06:11:18;99990.05;;;-2.70;80.50
51259;BME280;37327;54.254;18.504;2023-03-05T06:14:36;99989.13;;;-1.97;81.58
51259;BME280;37327;54.254;18.504;2023-03-05T06:17:53;99990.41;;;-0.75;80.84
51259;BME280;37327;54.254;18.504;2023-03-05T06:21:13;99983.07;;;0.57;77.44
51259;BME280;37327;54.254;18.504;2023-03-05T06:24:30;99969.19;;;1.56;72.51
51259;BME280;37327;54.254;18.504;2023-03-05T06:27:48;99971.51;;;2.09;68.84
51259;BME280;37327;54.254;18.504;2023-03-05T06:31:11;99969.55;;;1.92;66.32
51259;BME280;37327;54.254;18.504;2023-03-05T06:34:29;99970.80;;;1.97;66.84
51259;BME280;37327;54.254;18.504;2023-03-05T06:37:46;99965.28;;;2.48;65.73
51259;BME280;37327;54.254;18.504;2023-03-05T06:41:07;99963.91;;;2.34;63.17
51259;BME280;37327;54.254;18.504;2023-03-05T06:44:27;99952.79;;;3.05;64.29
51259;BME280;37327;54.254;18.504;2023-03-05T06:47:44;99955.23;;;4.08;62.89
51259;BME280;37327;54.254;18.504;2023-03-05T06:51:02;99952.06;;;4.04;59.57
51259;BME280;37327;54.254;18.504;2023-03-05T06:54:19;99955.52;;;3.69;59.01
51259;BME280;37327;54.254;18.504;2023-03-05T06:57:37;99964.71;;;3.39;57.96
51259;BME280;37327;54.254;18.504;2023-03-05T07:00:55;99964.34;;;3.51;58.41
51259;BME280;37327;54.254;18.504;2023-03-05T07:04:13;99956.38;;;3.69;57.73
51259;BME280;37327;54.254;18.504;2023-03-05T07:07:31;99960.51;;;3.82;56.99
51259;BME280;37327;54.254;18.504;2023-03-05T07:10:49;99956.00;;;3.82;55.86
51259;BME280;37327;54.254;18.504;2023-03-05T07:14:07;99959.61;;;3.45;55.28
51259;BME280;37327;54.254;18.504;2023-03-05T07:17:24;99955.64;;;2.94;54.88
51259;BME280;37327;54.254;18.504;2023-03-05T07:20:41;99951.45;;;2.34;54.94
51259;BME280;37327;54.254;18.504;2023-03-05T07:24:01;99959.73;;;1.92;55.46
51259;BME280;37327;54.254;18.504;2023-03-05T07:27:18;99953.39;;;1.54;55.59
51259;BME280;37327;54.254;18.504;2023-03-05T07:30:36;99963.76;;;1.17;56.05
51259;BME280;37327;54.254;18.504;2023-03-05T07:33:53;99957.53;;;0.97;56.86
51259;BME280;37327;54.254;18.504;2023-03-05T07:37:10;99960.22;;;0.76;57.09
51259;BME280;37327;54.254;18.504;2023-03-05T07:40:27;99961.70;;;0.59;57.42
51259;BME280;37327;54.254;18.504;2023-03-05T07:43:47;99960.21;;;0.45;57.85
51259;BME280;37327;54.254;18.504;2023-03-05T07:47:05;99962.65;;;0.58;58.39
51259;BME280;37327;54.254;18.504;2023-03-05T07:50:23;99961.98;;;0.87;58.26
51259;BME280;37327;54.254;18.504;2023-03-05T07:53:42;99951.91;;;1.31;58.73
51259;BME280;37327;54.254;18.504;2023-03-05T07:56:59;99947.53;;;1.80;58.21
51259;BME280;37327;54.254;18.504;2023-03-05T08:00:17;99949.59;;;2.54;57.73
51259;BME280;37327;54.254;18.504;2023-03-05T08:03:35;99948.53;;;3.12;57.01
51259;BME280;37327;54.254;18.504;2023-03-05T08:06:53;99948.20;;;3.71;55.55
51259;BME280;37327;54.254;18.504;2023-03-05T08:10:10;99938.11;;;4.37;54.30
51259;BME280;37327;54.254;18.504;2023-03-05T08:13:27;99938.34;;;4.69;53.01
51259;BME280;37327;54.254;18.504;2023-03-05T08:16:45;99933.63;;;4.63;51.66
51259;BME280;37327;54.254;18.504;2023-03-05T08:20:08;99934.76;;;4.61;51.82
51259;BME280;37327;54.254;18.504;2023-03-05T08:23:26;99933.25;;;4.58;51.70
51259;BME280;37327;54.254;18.504;2023-03-05T08:26:44;99922.89;;;4.55;51.35
51259;BME280;37327;54.254;18.504;2023-03-05T08:30:00;99924.93;;;4.61;50.96
51259;BME280;37327;54.254;18.504;2023-03-05T08:33:18;99918.09;;;4.41;50.21
51259;BME280;37327;54.254;18.504;2023-03-05T08:36:36;99921.34;;;4.52;51.45
51259;BME280;37327;54.254;18.504;2023-03-05T08:39:54;99913.58;;;4.41;50.02
51259;BME280;37327;54.254;18.504;2023-03-05T08:43:16;99914.74;;;4.39;50.45
51259;BME280;37327;54.254;18.504;2023-03-05T08:46:33;99906.52;;;4.32;50.50
51259;BME280;37327;54.254;18.504;2023-03-05T08:49:52;99912.02;;;4.30;50.27
51259;BME280;37327;54.254;18.504;2023-03-05T08:53:12;99905.35;;;4.34;49.94
51259;BME280;37327;54.254;18.504;2023-03-05T08:56:29;99903.12;;;4.48;49.95
51259;BME280;37327;54.254;18.504;2023-03-05T08:59:47;99911.09;;;4.40;48.40
51259;BME280;37327;54.254;18.504;2023-03-05T09:03:05;99904.30;;;4.27;48.25
51259;BME280;37327;54.254;18.504;2023-03-05T09:06:22;99910.41;;;4.20;48.22
51259;BME280;37327;54.254;18.504;2023-03-05T09:09:40;99905.24;;;4.00;47.35
51259;BME280;37327;54.254;18.504;2023-03-05T09:12:57;99910.14;;;4.05;48.21
51259;BME280;37327;54.254;18.504;2023-03-05T09:16:16;99911.66;;;4.07;47.98
51259;BME280;37327;54.254;18.504;2023-03-05T09:19:34;99913.50;;;4.07;48.12
51259;BME280;37327;54.254;18.504;2023-03-05T09:22:53;99910.66;;;3.90;46.82
51259;BME280;37327;54.254;18.504;2023-03-05T09:26:11;99907.57;;;3.77;47.57
51259;BME280;37327;54.254;18.504;2023-03-05T09:29:31;99913.88;;;3.76;47.58
51259;BME280;37327;54.254;18.504;2023-03-05T09:32:48;99909.84;;;3.90;47.58
51259;BME280;37327;54.254;18.504;2023-03-05T09:36:22;99903.28;;;3.84;47.08
51259;BME280;37327;54.254;18.504;2023-03-05T09:39:36;99915.84;;;3.38;45.17
51259;BME280;37327;54.254;18.504;2023-03-05T09:50:00;99909.80;;;3.08;46.54
51259;BME280;37327;54.254;18.504;2023-03-05T09:56:54;99912.54;;;3.26;44.75
51259;BME280;37327;54.254;18.504;2023-03-05T10:03:51;99911.31;;;3.21;45.47
51259;BME280;37327;54.254;18.504;2023-03-05T10:07:17;99901.27;;;3.32;44.91
51259;BME280;37327;54.254;18.504;2023-03-05T10:10:41;99887.13;;;3.22;45.42
51259;BME280;37327;54.254;18.504;2023-03-05T10:13:59;99901.89;;;3.44;45.83
51259;BME280;37327;54.254;18.504;2023-03-05T10:17:27;99893.06;;;3.44;44.81
51259;BME280;37327;54.254;18.504;2023-03-05T10:27:54;99895.49;;;3.09;43.77
51259;BME280;37327;54.254;18.504;2023-03-05T10:31:21;99896.59;;;3.16;44.15
51259;BME280;37327;54.254;18.504;2023-03-05T10:38:22;99896.82;;;3.23;43.67
51259;BME280;37327;54.254;18.504;2023-03-05T10:52:17;99875.45;;;4.57;43.83
51259;BME280;37327;54.254;18.504;2023-03-05T10:55:35;99866.85;;;4.80;43.52
51259;BME280;37327;54.254;18.504;2023-03-05T10:58:54;99887.63;;;4.94;43.37
51259;BME280;37327;54.254;18.504;2023-03-05T11:02:15;99858.40;;;4.92;41.71
51259;BME280;37327;54.254;18.504;2023-03-05T11:12:36;99856.57;;;5.01;41.14
51259;BME280;37327;54.254;18.504;2023-03-05T11:16:00;99875.43;;;4.91;41.97
51259;BME280;37327;54.254;18.504;2023-03-05T11:26:21;99865.47;;;4.67;41.55
51259;BME280;37327;54.254;18.504;2023-03-05T11:29:47;99846.93;;;4.74;41.33
51259;BME280;37327;54.254;18.504;2023-03-05T11:33:15;99856.40;;;4.94;41.39
51259;BME280;37327;54.254;18.504;2023-03-05T11:36:42;99865.55;;;4.92;41.10
51259;BME280;37327;54.254;18.504;2023-03-05T11:43:32;99849.30;;;5.20;41.13
51259;BME280;37327;54.254;18.504;2023-03-05T11:47:01;99849.98;;;5.30;41.29
51259;BME280;37327;54.254;18.504;2023-03-05T11:50:27;99852.59;;;5.13;41.04
51259;BME280;37327;54.254;18.504;2023-03-05T11:53:49;99829.13;;;4.91;40.67
51259;BME280;37327;54.254;18.504;2023-03-05T11:57:11;99845.48;;;4.45;40.60
51259;BME280;37327;54.254;18.504;2023-03-05T12:00:34;99845.31;;;4.21;41.53
51259;BME280;37327;54.254;18.504;2023-03-05T12:03:53;99842.98;;;4.00;41.71
51259;BME280;37327;54.254;18.504;2023-03-05T12:07:13;99832.24;;;3.91;42.37
51259;BME280;37327;54.254;18.504;2023-03-05T12:10:32;99832.92;;;3.93;42.84
51259;BME280;37327;54.254;18.504;2023-03-05T12:17:27;99826.16;;;3.81;42.34
51259;BME280;37327;54.254;18.504;2023-03-05T12:24:32;99840.44;;;3.72;41.70
51259;BME280;37327;54.254;18.504;2023-03-05T12:27:51;99827.38;;;3.69;42.16
51259;BME280;37327;54.254;18.504;2023-03-05T12:34:46;99829.21;;;3.68;42.58
51259;BME280;37327;54.254;18.504;2023-03-05T12:41:33;99826.55;;;3.14;42.35
51259;BME280;37327;54.254;18.504;2023-03-05T12:51:54;99827.47;;;2.78;43.93
51259;BME280;37327;54.254;18.504;2023-03-05T12:55:18;99817.26;;;2.91;44.49
51259;BME280;37327;54.254;18.504;2023-03-05T12:58:47;99814.94;;;3.06;44.15
51259;BME280;37327;54.254;18.504;2023-03-05T13:05:36;99810.84;;;3.11;43.29
51259;BME280;37327;54.254;18.504;2023-03-05T13:08:57;99808.57;;;3.16;44.03
51259;BME280;37327;54.254;18.504;2023-03-05T13:12:14;99814.95;;;3.24;44.04
51259;BME280;37327;54.254;18.504;2023-03-05T13:15:33;99800.49;;;3.26;44.25
51259;BME280;37327;54.254;18.504;2023-03-05T13:18:52;99800.24;;;3.38;44.35
51259;BME280;37327;54.254;18.504;2023-03-05T13:22:11;99807.20;;;3.48;44.21
51259;BME280;37327;54.254;18.504;2023-03-05T13:25:28;99806.43;;;3.56;44.27
51259;BME280;37327;54.254;18.504;2023-03-05T13:32:23;99802.70;;;3.49;44.30
51259;BME280;37327;54.254;18.504;2023-03-05T13:35:44;99810.16;;;3.45;44.70
51259;BME280;37327;54.254;18.504;2023-03-05T13:39:03;99805.15;;;3.24;44.67
51259;BME280;37327;54.254;18.504;2023-03-05T13:42:28;99797.10;;;3.06;44.40
51259;BME280;37327;54.254;18.504;2023-03-05T13:45:53;99815.84;;;2.96;45.48
51259;BME280;37327;54.254;18.504;2023-03-05T13:49:18;99818.68;;;2.95;45.86
51259;BME280;37327;54.254;18.504;2023-03-05T13:52:37;99814.02;;;2.97;46.19
51259;BME280;37327;54.254;18.504;2023-03-05T13:56:04;99812.33;;;2.96;46.41
51259;BME280;37327;54.254;18.504;2023-03-05T13:59:24;99803.84;;;2.83;46.48
51259;BME280;37327;54.254;18.504;2023-03-05T14:02:44;99807.80;;;2.79;46.92
51259;BME280;37327;54.254;18.504;2023-03-05T14:06:09;99803.84;;;2.83;46.66
51259;BME280;37327;54.254;18.504;2023-03-05T14:09:50;99806.61;;;2.63;45.94
51259;BME280;37327;54.254;18.504;2023-03-05T14:12:51;99801.58;;;2.32;45.62
51259;BME280;37327;54.254;18.504;2023-03-05T14:16:12;99806.96;;;2.13;45.24
51259;BME280;37327;54.254;18.504;2023-03-05T14:19:37;99801.77;;;2.11;45.26
51259;BME280;37327;54.254;18.504;2023-03-05T14:22:57;99795.28;;;2.24;45.64
51259;BME280;37327;54.254;18.504;2023-03-05T14:29:45;99793.38;;;2.44;44.92
51259;BME280;37327;54.254;18.504;2023-03-05T14:33:03;99787.22;;;2.43;44.21
51259;BME280;37327;54.254;18.504;2023-03-05T14:36:23;99792.55;;;2.43;44.66
51259;BME280;37327;54.254;18.504;2023-03-05T14:39:50;99795.35;;;2.42;44.18
51259;BME280;37327;54.254;18.504;2023-03-05T14:43:09;99790.92;;;2.32;44.24
51259;BME280;37327;54.254;18.504;2023-03-05T14:46:27;99806.35;;;2.29;44.27
51259;BME280;37327;54.254;18.504;2023-03-05T14:49:44;99796.12;;;2.24;44.28
51259;BME280;37327;54.254;18.504;2023-03-05T14:53:07;99796.31;;;2.13;43.71
51259;BME280;37327;54.254;18.504;2023-03-05T14:56:27;99792.67;;;2.04;43.90
51259;BME280;37327;54.254;18.504;2023-03-05T14:59:44;99783.75;;;1.95;43.67
51259;BME280;37327;54.254;18.504;2023-03-05T15:03:05;99789.78;;;1.88;43.64
51259;BME280;37327;54.254;18.504;2023-03-05T15:06:32;99783.91;;;1.84;44.08
51259;BME280;37327;54.254;18.504;2023-03-05T15:09:51;99791.05;;;1.84;44.35
51259;BME280;37327;54.254;18.504;2023-03-05T15:13:08;99785.17;;;1.80;43.85
51259;BME280;37327;54.254;18.504;2023-03-05T15:16:26;99774.68;;;1.78;43.86
51259;BME280;37327;54.254;18.504;2023-03-05T15:19:44;99783.09;;;1.74;43.97
51259;BME280;37327;54.254;18.504;2023-03-05T15:23:02;99785.34;;;1.69;43.33
51259;BME280;37327;54.254;18.504;2023-03-05T15:26:19;99784.21;;;1.62;43.42
51259;BME280;37327;54.254;18.504;2023-03-05T15:29:38;99784.78;;;1.55;43.31
51259;BME280;37327;54.254;18.504;2023-03-05T15:32:56;99782.69;;;1.49;43.06
51259;BME280;37327;54.254;18.504;2023-03-05T15:36:14;99782.42;;;1.43;42.64
51259;BME280;37327;54.254;18.504;2023-03-05T15:39:31;99783.13;;;1.35;43.23
51259;BME280;37327;54.254;18.504;2023-03-05T15:42:50;99782.55;;;1.22;42.82
51259;BME280;37327;54.254;18.504;2023-03-05T15:46:07;99780.29;;;1.17;43.31
51259;BME280;37327;54.254;18.504;2023-03-05T15:49:24;99789.69;;;1.11;43.54
51259;BME280;37327;54.254;18.504;2023-03-05T15:52:41;99785.60;;;1.07;43.95
51259;BME280;37327;54.254;18.504;2023-03-05T15:55:59;99783.50;;;1.01;44.16
51259;BME280;37327;54.254;18.504;2023-03-05T15:59:17;99783.23;;;0.94;44.51
51259;BME280;37327;54.254;18.504;2023-03-05T16:02:34;99784.61;;;0.89;44.97
51259;BME280;37327;54.254;18.504;2023-03-05T16:05:52;99782.52;;;0.83;45.33
51259;BME280;37327;54.254;18.504;2023-03-05T16:09:10;99791.03;;;0.76;45.47
51259;BME280;37327;54.254;18.504;2023-03-05T16:12:31;99793.24;;;0.71;45.60
51259;BME280;37327;54.254;18.504;2023-03-05T16:15:56;99798.27;;;0.65;45.98
51259;BME280;37327;54.254;18.504;2023-03-05T16:19:16;99796.84;;;0.61;46.05
51259;BME280;37327;54.254;18.504;2023-03-05T16:23:14;99797.38;;;0.54;46.62
51259;BME280;37327;54.254;18.504;2023-03-05T16:26:34;99803.23;;;0.48;46.96
51259;BME280;37327;54.254;18.504;2023-03-05T16:29:51;99806.30;;;0.44;47.34
51259;BME280;37327;54.254;18.504;2023-03-05T16:33:34;99802.77;;;0.33;48.09
51259;BME280;37327;54.254;18.504;2023-03-05T16:36:52;99805.93;;;0.27;48.39
51259;BME280;37327;54.254;18.504;2023-03-05T16:40:11;99801.03;;;0.23;48.89
51259;BME280;37327;54.254;18.504;2023-03-05T16:43:54;99801.69;;;0.15;49.35
51259;BME280;37327;54.254;18.504;2023-03-05T16:47:12;99807.41;;;0.10;49.67
51259;BME280;37327;54.254;18.504;2023-03-05T16:50:30;99809.73;;;0.04;49.91
51259;BME280;37327;54.254;18.504;2023-03-05T16:54:11;99806.06;;;-0.05;50.32
51259;BME280;37327;54.254;18.504;2023-03-05T16:57:28;99813.68;;;-0.12;51.03
51259;BME280;37327;54.254;18.504;2023-03-05T17:00:46;99822.88;;;-0.16;51.50
51259;BME280;37327;54.254;18.504;2023-03-05T17:04:04;99810.13;;;-0.22;51.67
51259;BME280;37327;54.254;18.504;2023-03-05T17:07:23;99810.78;;;-0.30;52.22
51259;BME280;37327;54.254;18.504;2023-03-05T17:10:42;99810.90;;;-0.31;52.45
51259;BME280;37327;54.254;18.504;2023-03-05T17:14:00;99805.88;;;-0.34;52.56
51259;BME280;37327;54.254;18.504;2023-03-05T17:17:20;99805.53;;;-0.41;53.08
51259;BME280;37327;54.254;18.504;2023-03-05T17:20:38;99807.74;;;-0.46;53.43
51259;BME280;37327;54.254;18.504;2023-03-05T17:23:56;99799.44;;;-0.53;53.71
51259;BME280;37327;54.254;18.504;2023-03-05T17:27:14;99796.36;;;-0.58;54.09
51259;BME280;37327;54.254;18.504;2023-03-05T17:30:35;99807.91;;;-0.59;54.35
51259;BME280;37327;54.254;18.504;2023-03-05T17:33:56;99803.83;;;-0.63;54.59
51259;BME280;37327;54.254;18.504;2023-03-05T17:37:13;99799.75;;;-0.67;54.97
51259;BME280;37327;54.254;18.504;2023-03-05T17:40:32;99800.87;;;-0.70;55.16
51259;BME280;37327;54.254;18.504;2023-03-05T17:43:50;99800.14;;;-0.72;55.40
51259;BME280;37327;54.254;18.504;2023-03-05T17:47:07;99798.72;;;-0.76;55.71
51259;BME280;37327;54.254;18.504;2023-03-05T17:50:25;99798.01;;;-0.78;55.91
51259;BME280;37327;54.254;18.504;2023-03-05T17:53:43;99802.72;;;-0.82;56.21
51259;BME280;37327;54.254;18.504;2023-03-05T17:57:02;99801.99;;;-0.84;56.37
51259;BME280;37327;54.254;18.504;2023-03-05T18:00:25;99795.12;;;-0.86;56.67
51259;BME280;37327;54.254;18.504;2023-03-05T18:03:43;99794.56;;;-0.90;56.89
51259;BME280;37327;54.254;18.504;2023-03-05T18:07:01;99789.50;;;-0.93;57.14
51259;BME280;37327;54.254;18.504;2023-03-05T18:10:20;99785.42;;;-0.97;57.43
51259;BME280;37327;54.254;18.504;2023-03-05T18:13:37;99789.16;;;-1.00;57.68
51259;BME280;37327;54.254;18.504;2023-03-05T18:16:54;99787.47;;;-1.01;57.88
51259;BME280;37327;54.254;18.504;2023-03-05T18:23:43;99779.05;;;-1.06;58.13
51259;BME280;37327;54.254;18.504;2023-03-05T18:27:01;99788.93;;;-1.08;58.43
51259;BME280;37327;54.254;18.504;2023-03-05T18:30:19;99783.03;;;-1.11;58.70
51259;BME280;37327;54.254;18.504;2023-03-05T18:33:37;99783.18;;;-1.13;58.88
51259;BME280;37327;54.254;18.504;2023-03-05T18:36:54;99775.35;;;-1.14;59.18
51259;BME280;37327;54.254;18.504;2023-03-05T18:40:15;99771.98;;;-1.16;59.33
51259;BME280;37327;54.254;18.504;2023-03-05T18:43:32;99776.45;;;-1.17;59.57
51259;BME280;37327;54.254;18.504;2023-03-05T18:46:49;99773.80;;;-1.17;59.72
51259;BME280;37327;54.254;18.504;2023-03-05T18:50:12;99767.64;;;-1.17;60.08
51259;BME280;37327;54.254;18.504;2023-03-05T18:53:30;99775.85;;;-1.21;60.48